createdAt,value
2022-08-14T00:00:03.758Z,0
2022-08-14T00:15:05.104Z,0
2022-08-14T00:30:07.781Z,0
2022-08-14T00:45:04.477Z,0
2022-08-14T01:00:02.768Z,0
2022-08-14T01:15:04.086Z,0
2022-08-14T01:30:05.276Z,0
2022-08-14T01:45:06.480Z,0
2022-08-14T02:00:03.346Z,0
2022-08-14T02:15:02.972Z,0
2022-08-14T02:30:07.164Z,0
2022-08-14T02:45:05.447Z,0
2022-08-14T03:00:02.225Z,0
2022-08-14T03:15:02.021Z,0
2022-08-14T03:30:00.311Z,0
2022-08-14T03:45:27.449Z,0
2022-08-14T04:00:05.814Z,0
2022-08-14T04:15:05.607Z,4
2022-08-14T04:30:00.856Z,16
2022-08-14T04:45:08.199Z,32
2022-08-14T05:00:00.342Z,55
2022-08-14T05:15:04.621Z,112
2022-08-14T05:30:05.921Z,144
2022-08-14T05:45:53.777Z,168
2022-08-14T06:00:00.863Z,236
2022-08-14T06:15:00.728Z,244
2022-08-14T06:30:09.459Z,282
2022-08-14T06:45:04.654Z,332
2022-08-14T07:00:07.433Z,384
2022-08-14T07:15:07.158Z,422
2022-08-14T07:30:02.742Z,468
2022-08-14T07:45:06.638Z,501
2022-08-14T08:00:06.433Z,547
2022-08-14T08:15:07.366Z,582
2022-08-14T08:30:10.237Z,614
2022-08-14T08:45:04.174Z,638
2022-08-14T09:00:10.033Z,671
2022-08-14T09:15:03.775Z,690
2022-08-14T09:30:30.744Z,715
2022-08-14T09:45:07.836Z,737
2022-08-14T10:00:04.559Z,755
2022-08-14T10:15:07.375Z,772
2022-08-14T10:30:12.203Z,784
2022-08-14T10:45:06.772Z,793
2022-08-14T11:00:02.040Z,799
2022-08-14T11:15:04.747Z,802
2022-08-14T11:30:50.887Z,802
2022-08-14T11:45:11.444Z,798
2022-08-14T12:00:08.677Z,791
2022-08-14T12:15:00.775Z,782
2022-08-14T12:30:02.157Z,771
2022-08-14T12:45:06.323Z,756
2022-08-14T13:00:02.869Z,740
2022-08-14T13:15:08.921Z,717
2022-08-14T13:30:03.337Z,690
2022-08-14T13:45:07.392Z,664
2022-08-14T14:00:08.768Z,630
2022-08-14T14:15:09.698Z,600
2022-08-14T14:30:03.703Z,570
2022-08-14T14:45:03.336Z,533
2022-08-14T15:00:21.173Z,498
2022-08-14T15:15:09.474Z,459
2022-08-14T15:30:05.617Z,420
2022-08-14T15:45:01.741Z,376
2022-08-14T16:00:05.357Z,336
2022-08-14T16:15:00.602Z,294
2022-08-14T16:30:01.637Z,250
2022-08-14T16:45:07.422Z,205
2022-08-14T17:00:07.188Z,155
2022-08-14T17:15:00.637Z,106
2022-08-14T17:30:04.910Z,38
2022-08-14T17:45:00.102Z,20
2022-08-14T18:00:07.371Z,11
2022-08-14T18:15:14.115Z,3
2022-08-14T18:30:31.830Z,0
2022-08-14T18:45:12.982Z,0
2022-08-14T19:00:11.815Z,0
2022-08-14T19:15:01.664Z,0
2022-08-14T19:30:01.900Z,0
2022-08-14T19:45:01.579Z,0
2022-08-14T20:00:04.459Z,0
2022-08-14T20:15:02.525Z,0
2022-08-14T20:30:29.827Z,0
2022-08-14T20:45:04.059Z,0
2022-08-14T21:00:02.630Z,0
2022-08-14T21:15:10.126Z,0
2022-08-14T21:30:08.726Z,0
2022-08-14T21:45:05.961Z,0
2022-08-14T22:00:30.570Z,0
2022-08-14T22:15:05.200Z,0
2022-08-14T22:30:03.337Z,0
2022-08-14T22:45:04.615Z,0
2022-08-14T23:00:04.311Z,0
2022-08-14T23:15:07.506Z,0
2022-08-14T23:30:05.377Z,0
2022-08-14T23:45:03.761Z,0
